Time;durP1;ratioP1;P1;durP2;ratioP2;P2;SDS_P1;SDS_P2;PMS_P1;PMS_P2;Temp;Humidity;BMP_temperature;BMP_pressure;BME280_temperature;BME280_humidity;BME280_pressure;Samples;Min_cycle;Max_cycle;Signal;HPM_P1;HPM_P2
2021/11/28 00:02:19;;;;;;;42.23;21.77;;;;;;;1.87;81.71;98595.66;1672178;85;21122;-74
2021/11/28 00:04:46;;;;;;;53.50;26.02;;;;;;;1.84;81.72;98589.41;1660261;86;21605;-73
2021/11/28 00:10:05;;;;;;;48.98;23.85;;;;;;;1.76;81.72;98584.14;1657633;86;21141;-73
2021/11/28 00:12:40;;;;;;;50.33;24.82;;;;;;;1.73;81.73;98584.44;1656858;86;21082;-73
2021/11/28 00:15:00;;;;;;;54.48;25.25;;;;;;;1.71;81.74;98575.90;1651952;86;21157;-73
2021/11/28 00:17:24;;;;;;;50.75;25.02;;;;;;;1.66;81.73;98572.91;1657304;86;21054;-73
2021/11/28 00:19:50;;;;;;;52.00;26.93;;;;;;;1.60;81.72;98574.87;1657123;86;21656;-73
2021/11/28 00:22:17;;;;;;;49.18;24.82;;;;;;;1.57;81.73;98575.19;1657230;86;21611;-73
2021/11/28 00:24:43;;;;;;;43.38;23.60;;;;;;;1.54;81.77;98573.70;1657876;86;21579;-73
2021/11/28 00:27:09;;;;;;;46.00;24.00;;;;;;;1.49;81.75;98574.17;1656995;86;21205;-73
2021/11/28 00:29:35;;;;;;;46.10;23.83;;;;;;;1.47;81.78;98576.14;1657391;86;20975;-73
2021/11/28 00:32:01;;;;;;;43.75;22.58;;;;;;;1.45;81.78;98583.34;1657395;86;21062;-73
2021/11/28 00:34:27;;;;;;;43.50;23.55;;;;;;;1.43;81.79;98582.69;1657721;85;20960;-73
2021/11/28 00:36:53;;;;;;;49.65;24.05;;;;;;;1.42;81.79;98582.83;1656750;86;21118;-74
2021/11/28 00:39:19;;;;;;;46.13;23.98;;;;;;;1.39;81.78;98582.66;1661431;86;22478;-73
2021/11/28 00:41:45;;;;;;;51.40;27.25;;;;;;;1.38;81.81;98582.31;1663689;86;20939;-73
2021/11/28 00:44:11;;;;;;;46.65;24.25;;;;;;;1.37;81.78;98585.91;1664222;86;20931;-74
2021/11/28 00:46:37;;;;;;;41.13;23.65;;;;;;;1.37;81.78;98578.03;1664144;85;20927;-73
2021/11/28 00:49:04;;;;;;;44.15;24.57;;;;;;;1.33;81.81;98589.86;1664103;86;21660;-73
2021/11/28 00:51:48;;;;;;;48.75;24.12;;;;;;;1.32;81.82;98586.89;1663958;86;21851;-73
2021/11/28 00:54:04;;;;;;;46.85;24.05;;;;;;;1.30;81.85;98596.70;1661971;86;21085;-73
2021/11/28 00:56:30;;;;;;;46.02;23.73;;;;;;;1.26;81.85;98609.84;1663784;86;21148;-73
2021/11/28 00:58:56;;;;;;;47.70;25.65;;;;;;;1.19;81.86;98612.75;1663902;86;21577;-73
2021/11/28 01:01:22;;;;;;;54.27;25.37;;;;;;;1.13;81.88;98610.72;1664046;86;21029;-73
2021/11/28 01:03:48;;;;;;;46.68;24.55;;;;;;;1.05;81.89;98606.75;1662947;85;21593;-73
2021/11/28 01:06:14;;;;;;;46.70;25.55;;;;;;;1.02;81.92;98612.31;1655286;86;21758;-73
2021/11/28 01:08:41;;;;;;;49.70;26.20;;;;;;;0.98;81.93;98610.48;1655525;86;21087;-73
2021/11/28 01:11:07;;;;;;;53.05;26.17;;;;;;;0.93;81.94;98611.89;1655571;86;21045;-73
2021/11/28 01:13:33;;;;;;;53.00;26.52;;;;;;;0.90;81.95;98607.78;1655615;86;21410;-73
2021/11/28 01:15:59;;;;;;;50.35;27.07;;;;;;;0.88;81.96;98618.11;1655648;85;21168;-73
2021/11/28 01:18:26;;;;;;;46.33;24.20;;;;;;;0.86;81.98;98616.11;1655559;86;20946;-73
2021/11/28 01:20:52;;;;;;;51.30;26.57;;;;;;;0.84;81.99;98627.25;1655305;86;21465;-73
2021/11/28 01:23:18;;;;;;;49.33;26.17;;;;;;;0.82;82.00;98630.50;1655310;86;20889;-73
2021/11/28 01:25:44;;;;;;;44.00;24.72;;;;;;;0.82;82.01;98637.06;1655804;86;20942;-74
2021/11/28 01:28:09;;;;;;;45.67;25.75;;;;;;;0.82;82.03;98639.68;1655443;86;21135;-73
2021/11/28 01:30:35;;;;;;;50.00;25.10;;;;;;;0.77;82.10;98632.77;1655429;86;21690;-73
2021/11/28 01:33:02;;;;;;;46.58;25.20;;;;;;;0.75;82.10;98638.16;1655446;86;21013;-73
2021/11/28 01:35:28;;;;;;;51.98;28.02;;;;;;;0.76;82.14;98632.42;1655486;85;21521;-73
2021/11/28 01:37:54;;;;;;;52.20;25.85;;;;;;;0.78;82.16;98637.02;1654630;86;21120;-73
2021/11/28 01:40:20;;;;;;;51.88;25.68;;;;;;;0.77;82.18;98636.70;1649315;87;21120;-73
2021/11/28 01:42:50;;;;;;;46.10;25.75;;;;;;;0.77;82.21;98638.02;1649585;87;21033;-73
2021/11/28 01:45:24;;;;;;;;;;;;;;;0.76;82.24;98645.55;1651861;87;21730;-73
2021/11/28 01:47:52;;;;;;;52.00;25.72;;;;;;;0.74;82.25;98644.88;1649629;87;20179;-73
2021/11/28 01:50:18;;;;;;;51.98;25.88;;;;;;;0.70;82.26;98643.53;1649620;87;21069;-73
2021/11/28 01:52:44;;;;;;;50.75;26.62;;;;;;;0.67;82.27;98642.02;1649292;87;21170;-73
2021/11/28 01:55:13;;;;;;;52.53;26.82;;;;;;;0.65;82.28;98642.66;1649349;87;21061;-73
2021/11/28 01:57:39;;;;;;;47.80;26.37;;;;;;;0.62;82.31;98635.58;1649377;87;21125;-73
2021/11/28 02:00:12;;;;;;;49.42;26.00;;;;;;;0.57;82.32;98636.02;1649603;87;21026;-73
2021/11/28 02:02:38;;;;;;;53.00;28.23;;;;;;;0.55;82.34;98631.91;1648729;87;21461;-74
2021/11/28 02:05:05;;;;;;;51.25;24.98;;;;;;;0.52;82.36;98624.34;1649460;86;21175;-74
2021/11/28 02:07:31;;;;;;;52.27;27.35;;;;;;;0.47;82.38;98620.38;1648787;87;21549;-73
2021/11/28 02:09:57;;;;;;;52.95;26.68;;;;;;;0.42;82.39;98617.36;1649489;87;20898;-73
2021/11/28 02:12:26;;;;;;;56.77;28.05;;;;;;;0.39;82.42;98612.42;1649509;87;21062;-73
2021/11/28 02:14:52;;;;;;;56.42;28.85;;;;;;;0.37;82.43;98606.52;1649601;87;21614;-73
2021/11/28 02:17:18;;;;;;;56.30;29.00;;;;;;;0.33;82.42;98598.61;1649682;87;21175;-73
2021/11/28 02:19:44;;;;;;;51.23;26.27;;;;;;;0.28;82.45;98610.02;1649074;87;21137;-74
2021/11/28 02:22:10;;;;;;;48.02;25.12;;;;;;;0.26;82.49;98607.22;1649433;87;20914;-73
2021/11/28 02:24:36;;;;;;;50.78;26.23;;;;;;;0.24;82.51;98616.55;1648949;87;20910;-73
2021/11/28 02:27:02;;;;;;;49.53;27.15;;;;;;;0.21;82.52;98619.45;1649342;87;21192;-72
2021/11/28 02:29:28;;;;;;;47.78;25.92;;;;;;;0.17;82.54;98631.70;1648920;87;21126;-73
2021/11/28 02:31:53;;;;;;;44.48;25.02;;;;;;;0.15;82.57;98635.77;1649347;87;21687;-73
2021/11/28 02:34:21;;;;;;;47.17;25.00;;;;;;;0.13;82.60;98633.80;1649571;87;21002;-73
2021/11/28 02:36:52;;;;;;;46.98;25.95;;;;;;;0.13;82.63;98640.34;1648761;87;21529;-73
2021/11/28 02:39:19;;;;;;;47.38;26.45;;;;;;;0.13;82.65;98637.73;1653371;86;21058;-73
2021/11/28 02:41:46;;;;;;;47.08;26.05;;;;;;;0.15;82.66;98633.15;1655587;86;21193;-74
2021/11/28 02:44:14;;;;;;;52.33;27.42;;;;;;;0.20;82.67;98633.55;1655248;86;21060;-73
2021/11/28 02:46:40;;;;;;;45.48;24.18;;;;;;;0.23;82.70;98642.42;1655492;86;21540;-73
2021/11/28 02:49:06;;;;;;;50.43;25.08;;;;;;;0.27;82.71;98637.22;1655556;85;21517;-73
2021/11/28 02:51:34;;;;;;;46.70;25.43;;;;;;;0.30;82.73;98629.06;1655457;86;20921;-73
2021/11/28 02:54:01;;;;;;;53.83;26.57;;;;;;;0.34;82.75;98629.10;1655514;86;21172;-73
2021/11/28 02:56:27;;;;;;;54.80;26.45;;;;;;;0.36;82.76;98624.52;1655498;86;21069;-73
2021/11/28 02:58:52;;;;;;;48.17;25.40;;;;;;;0.38;82.79;98623.91;1655243;86;20954;-73
2021/11/28 03:01:20;;;;;;;47.10;25.00;;;;;;;0.38;82.81;98625.70;1655373;85;21642;-73
2021/11/28 03:03:46;;;;;;;49.03;24.52;;;;;;;0.39;82.82;98625.53;1655392;86;21085;-73
2021/11/28 03:06:12;;;;;;;43.40;22.90;;;;;;;0.41;82.83;98631.47;1661972;84;21506;-73
2021/11/28 03:08:38;;;;;;;43.10;23.22;;;;;;;0.43;82.86;98635.23;1663780;84;20895;-73
2021/11/28 03:11:04;;;;;;;45.88;23.95;;;;;;;0.43;82.88;98632.13;1663976;85;21038;-73
2021/11/28 03:13:33;;;;;;;50.17;26.00;;;;;;;0.45;82.90;98630.20;1664005;86;21066;-73
2021/11/28 03:16:02;;;;;;;34.93;18.40;;;;;;;0.46;82.92;98630.52;1663489;85;21050;-73
2021/11/28 03:18:29;;;;;;;48.90;24.75;;;;;;;0.52;82.93;98633.52;1664042;85;21117;-73
2021/11/28 03:20:58;;;;;;;50.52;26.33;;;;;;;0.53;82.95;98629.94;1663467;85;21038;-73
2021/11/28 03:23:29;;;;;;;50.08;26.25;;;;;;;0.54;82.97;98618.45;1663751;85;21157;-73
2021/11/28 03:26:16;;;;;;;46.80;24.43;;;;;;;0.53;82.97;98620.77;1663903;85;21626;-73
2021/11/28 03:28:58;;;;;;;52.80;27.80;;;;;;;0.49;82.99;98621.03;1663800;86;21121;-73
2021/11/28 03:31:26;;;;;;;53.58;25.55;;;;;;;0.45;83.01;98620.19;1663905;86;21054;-73
2021/11/28 03:33:52;;;;;;;52.73;25.12;;;;;;;0.38;83.02;98622.59;1663803;86;21065;-73
2021/11/28 03:36:23;;;;;;;48.87;26.23;;;;;;;0.33;83.06;98618.27;1663762;86;21122;-73
2021/11/28 03:38:49;;;;;;;45.70;25.48;;;;;;;0.28;83.08;98616.56;1660597;86;21042;-73
2021/11/28 03:41:17;;;;;;;44.45;25.23;;;;;;;0.24;83.06;98624.42;1656949;86;21086;-73
2021/11/28 03:43:43;;;;;;;44.65;23.90;;;;;;;0.19;83.08;98617.95;1657572;86;21741;-73
2021/11/28 03:46:09;;;;;;;45.50;24.35;;;;;;;0.13;83.09;98624.62;1656721;86;21612;-73
2021/11/28 03:48:35;;;;;;;44.80;24.05;;;;;;;0.09;83.08;98621.95;1657542;86;21022;-73
2021/11/28 03:51:01;;;;;;;51.42;27.60;;;;;;;0.05;83.10;98632.39;1657034;86;20994;-73
2021/11/28 03:53:27;;;;;;;46.10;25.57;;;;;;;0.02;83.10;98624.83;1657540;86;21062;-73
2021/11/28 03:55:53;;;;;;;48.00;25.80;;;;;;;-0.03;83.13;98629.67;1657538;86;21685;-73
2021/11/28 03:58:19;;;;;;;51.35;25.72;;;;;;;-0.07;83.14;98621.28;1657504;86;21047;-73
2021/11/28 04:00:46;;;;;;;58.85;27.42;;;;;;;-0.09;83.16;98621.09;1657593;86;21449;-72
2021/11/28 04:03:12;;;;;;;49.18;27.00;;;;;;;-0.11;83.18;98625.19;1657071;86;21599;-73
2021/11/28 04:05:39;;;;;;;49.93;24.35;;;;;;;-0.13;83.19;98626.28;1657482;86;21062;-73
2021/11/28 04:08:05;;;;;;;45.43;26.35;;;;;;;-0.19;83.22;98630.80;1657099;86;21127;-73
2021/11/28 04:10:31;;;;;;;44.40;24.12;;;;;;;-0.22;83.25;98633.72;1657458;86;21523;-73
2021/11/28 04:12:57;;;;;;;49.38;25.45;;;;;;;-0.29;83.27;98636.58;1657728;86;20935;-73
2021/11/28 04:15:23;;;;;;;47.35;25.27;;;;;;;-0.36;83.32;98640.26;1657338;86;20976;-73
2021/11/28 04:17:49;;;;;;;42.10;23.70;;;;;;;-0.40;83.36;98636.75;1657660;86;21105;-73
2021/11/28 04:20:15;;;;;;;47.25;25.23;;;;;;;-0.39;83.36;98635.80;1657355;86;21123;-73
2021/11/28 04:22:41;;;;;;;51.77;25.97;;;;;;;-0.38;83.36;98638.25;1657404;86;20963;-73
2021/11/28 04:25:08;;;;;;;45.90;27.20;;;;;;;-0.34;83.39;98638.79;1657066;86;21607;-73
2021/11/28 04:27:34;;;;;;;49.98;27.42;;;;;;;-0.29;83.40;98641.81;1657518;86;21031;-73
2021/11/28 04:30:00;;;;;;;47.35;25.92;;;;;;;-0.23;83.42;98639.91;1657484;85;20931;-73
2021/11/28 04:32:26;;;;;;;52.15;25.62;;;;;;;-0.19;83.41;98648.66;1657397;86;21192;-73
2021/11/28 04:34:52;;;;;;;50.05;25.37;;;;;;;-0.15;83.43;98644.78;1657453;86;20990;-73
2021/11/28 04:37:18;;;;;;;46.73;26.12;;;;;;;-0.11;83.45;98646.63;1656989;85;21035;-73
2021/11/28 04:39:44;;;;;;;52.60;27.82;;;;;;;-0.09;83.46;98642.88;1662682;86;20900;-73
2021/11/28 04:42:10;;;;;;;50.30;28.55;;;;;;;-0.03;83.47;98645.39;1663678;86;21005;-73
2021/11/28 04:44:36;;;;;;;49.00;26.37;;;;;;;0.04;83.49;98645.14;1663849;86;21648;-73
2021/11/28 04:47:02;;;;;;;50.85;28.00;;;;;;;0.11;83.51;98640.97;1663461;86;20912;-73
2021/11/28 04:49:28;;;;;;;53.95;27.67;;;;;;;0.14;83.52;98639.36;1663461;86;21114;-73
2021/11/28 04:51:54;;;;;;;49.35;26.33;;;;;;;0.20;83.52;98634.03;1663912;85;21063;-73
2021/11/28 04:54:20;;;;;;;53.23;29.48;;;;;;;0.23;83.56;98645.52;1661333;85;21010;-73
2021/11/28 04:56:46;;;;;;;54.67;30.80;;;;;;;0.26;83.58;98649.16;1664780;86;21174;-73
2021/11/28 04:59:12;;;;;;;57.10;32.95;;;;;;;0.28;83.58;98644.09;1664916;86;21056;-73
2021/11/28 05:01:38;;;;;;;56.60;30.37;;;;;;;0.31;83.59;98645.62;1664868;86;21074;-72
2021/11/28 05:04:04;;;;;;;49.40;29.40;;;;;;;0.31;83.60;98650.38;1649083;86;21512;-73
2021/11/28 05:06:30;;;;;;;52.25;29.10;;;;;;;0.31;83.62;98654.31;1662217;86;20921;-73
2021/11/28 05:08:56;;;;;;;50.73;28.15;;;;;;;0.31;83.64;98649.06;1669950;86;21224;-73
2021/11/28 05:11:22;;;;;;;48.70;27.93;;;;;;;0.32;83.67;98651.17;1669997;84;20913;-73
2021/11/28 05:13:48;;;;;;;46.58;27.07;;;;;;;0.30;83.70;98650.03;1669906;86;21735;-73
2021/11/28 05:16:14;;;;;;;48.58;27.17;;;;;;;0.27;83.71;98658.20;1670052;85;20912;-73
2021/11/28 05:18:40;;;;;;;53.15;30.52;;;;;;;0.26;83.72;98656.53;1670144;86;21023;-73
2021/11/28 05:21:06;;;;;;;49.77;28.55;;;;;;;0.22;83.73;98655.17;1669475;86;21781;-73
2021/11/28 05:23:32;;;;;;;50.28;28.95;;;;;;;0.17;83.76;98657.44;1669764;86;20919;-73
2021/11/28 05:25:58;;;;;;;52.70;28.60;;;;;;;0.11;83.78;98659.31;1670178;86;20998;-73
2021/11/28 05:28:24;;;;;;;58.80;30.85;;;;;;;0.02;83.79;98668.06;1669982;86;21061;-73
2021/11/28 05:30:50;;;;;;;64.70;33.53;;;;;;;-0.01;83.81;98671.80;1670215;86;20949;-73
2021/11/28 05:33:16;;;;;;;64.35;35.03;;;;;;;0.00;83.80;98676.56;1670416;86;21145;-73
2021/11/28 05:35:41;;;;;;;71.67;39.65;;;;;;;0.02;83.78;98673.78;1670040;86;21224;-73
2021/11/28 05:38:07;;;;;;;63.13;38.17;;;;;;;0.04;83.76;98672.66;1669932;86;21000;-73
2021/11/28 05:40:33;;;;;;;56.37;31.00;;;;;;;0.04;83.78;98673.14;1670273;86;20923;-73
2021/11/28 05:42:59;;;;;;;65.57;33.53;;;;;;;-0.03;83.75;98668.97;1669998;86;20988;-73
2021/11/28 05:45:26;;;;;;;58.68;29.70;;;;;;;-0.11;83.75;98672.82;1670056;86;21079;-73
2021/11/28 05:47:52;;;;;;;53.00;28.75;;;;;;;-0.19;83.73;98658.30;1670092;86;21068;-73
2021/11/28 05:50:21;;;;;;;55.40;28.67;;;;;;;-0.23;83.76;98664.80;1670082;86;21068;-73
2021/11/28 05:52:47;;;;;;;59.25;32.58;;;;;;;-0.26;83.75;98669.84;1670036;86;21036;-73
2021/11/28 05:55:12;;;;;;;70.37;39.50;;;;;;;-0.22;83.76;98670.38;1670064;84;20921;-73
2021/11/28 05:57:38;;;;;;;63.92;34.60;;;;;;;-0.18;83.80;98670.44;1670161;86;21784;-73
2021/11/28 06:00:07;;;;;;;58.05;27.52;;;;;;;-0.14;83.80;98665.26;1669578;86;27899;-73
2021/11/28 06:02:33;;;;;;;54.77;27.95;;;;;;;-0.21;83.78;98670.73;1670099;84;21445;-73
2021/11/28 06:04:59;;;;;;;65.42;35.73;;;;;;;-0.31;83.80;98671.23;1670023;86;20904;-73
2021/11/28 06:07:25;;;;;;;75.65;35.38;;;;;;;-0.37;83.79;98679.67;1669908;86;20933;-73
2021/11/28 06:09:50;;;;;;;84.62;37.70;;;;;;;-0.40;83.83;98678.65;1669790;86;21181;-73
2021/11/28 06:12:16;;;;;;;49.40;26.33;;;;;;;-0.44;83.85;98676.80;1670040;86;20985;-73
2021/11/28 06:14:42;;;;;;;55.10;28.12;;;;;;;-0.47;83.86;98682.80;1670199;86;20942;-73
2021/11/28 06:17:08;;;;;;;43.45;26.33;;;;;;;-0.50;83.88;98683.92;1663259;86;20921;-73
2021/11/28 06:19:35;;;;;;;46.48;26.35;;;;;;;-0.49;83.91;98695.23;1670160;86;20897;-73
2021/11/28 06:22:01;;;;;;;43.60;25.25;;;;;;;-0.47;83.93;98698.52;1669714;86;21508;-73
2021/11/28 06:24:27;;;;;;;43.68;24.85;;;;;;;-0.40;83.97;98703.52;1669950;86;20920;-73
2021/11/28 06:26:53;;;;;;;44.10;23.90;;;;;;;-0.33;83.96;98701.98;1669973;86;21094;-73
2021/11/28 06:29:19;;;;;;;44.23;24.75;;;;;;;-0.25;83.97;98705.55;1669916;86;20936;-73
2021/11/28 06:31:45;;;;;;;48.17;28.17;;;;;;;-0.15;83.97;98710.75;1670163;86;21769;-73
2021/11/28 06:34:11;;;;;;;60.95;31.62;;;;;;;-0.08;83.97;98713.13;1670076;86;21611;-74
2021/11/28 06:36:37;;;;;;;57.88;30.68;;;;;;;-0.04;83.97;98717.12;1670279;86;20919;-73
2021/11/28 06:39:02;;;;;;;48.10;26.97;;;;;;;-0.02;83.99;98708.62;1669851;86;20994;-73
2021/11/28 06:41:28;;;;;;;43.80;24.18;;;;;;;0.00;84.00;98719.80;1670480;86;21062;-73
2021/11/28 06:43:55;;;;;;;51.20;27.58;;;;;;;0.04;84.04;98714.58;1670070;86;20985;-73
2021/11/28 06:46:21;;;;;;;60.98;34.35;;;;;;;0.05;84.04;98708.86;1669799;86;21153;-73
2021/11/28 06:48:47;;;;;;;64.75;35.92;;;;;;;0.04;84.07;98711.96;1669541;86;20984;-73
2021/11/28 06:51:13;;;;;;;62.83;33.33;;;;;;;0.05;84.07;98707.06;1670042;86;20940;-73
2021/11/28 06:53:39;;;;;;;60.63;32.63;;;;;;;0.10;84.13;98700.92;1668809;86;21063;-73
2021/11/28 06:56:05;;;;;;;61.77;33.48;;;;;;;0.15;84.16;98699.98;1670069;86;21012;-73
2021/11/28 06:58:32;;;;;;;50.88;31.15;;;;;;;0.18;84.18;98699.69;1670293;86;21630;-73
2021/11/28 07:00:58;;;;;;;69.12;37.03;;;;;;;0.23;84.21;98706.63;1669967;86;21026;-73
2021/11/28 07:03:24;;;;;;;71.70;38.13;;;;;;;0.23;84.23;98704.02;1669984;86;21013;-73
2021/11/28 07:05:50;;;;;;;52.45;30.57;;;;;;;0.26;84.23;98712.89;1669989;86;20909;-73
2021/11/28 07:08:16;;;;;;;54.73;30.65;;;;;;;0.34;84.25;98716.92;1670208;86;20913;-73
2021/11/28 07:10:42;;;;;;;49.83;28.17;;;;;;;0.38;84.26;98718.28;1645439;86;21559;-73
2021/11/28 07:13:08;;;;;;;54.98;29.95;;;;;;;0.43;84.27;98718.66;1669965;86;21032;-73
2021/11/28 07:15:35;;;;;;;51.42;27.35;;;;;;;0.44;84.29;98717.69;1670509;86;20976;-73
2021/11/28 07:18:01;;;;;;;50.88;27.95;;;;;;;0.49;84.31;98712.81;1669819;86;21068;-73
2021/11/28 07:20:27;;;;;;;53.00;30.12;;;;;;;0.55;84.32;98721.91;1670013;86;21132;-74
2021/11/28 07:22:53;;;;;;;56.90;31.65;;;;;;;0.58;84.34;98726.84;1669812;86;22159;-73
2021/11/28 07:25:20;;;;;;;55.67;32.28;;;;;;;0.64;84.35;98726.73;1670149;86;20928;-74
2021/11/28 07:27:45;;;;;;;62.73;31.73;;;;;;;0.71;84.37;98727.78;1670122;86;21076;-73
2021/11/28 07:30:11;;;;;;;55.45;30.48;;;;;;;0.78;84.37;98707.85;1669765;86;20937;-73
2021/11/28 07:32:37;;;;;;;53.35;30.85;;;;;;;0.84;84.39;98705.48;1669908;86;20948;-73
2021/11/28 07:35:04;;;;;;;54.23;29.77;;;;;;;0.91;84.39;98700.45;1669620;86;21193;-73
2021/11/28 07:37:30;;;;;;;46.48;27.00;;;;;;;0.97;84.42;98705.92;1670083;86;21545;-74
2021/11/28 07:39:57;;;;;;;48.50;26.65;;;;;;;1.05;84.41;98707.80;1670023;86;20899;-74
2021/11/28 07:42:23;;;;;;;55.73;28.52;;;;;;;1.12;84.41;98710.15;1670042;86;21074;-74
2021/11/28 07:44:49;;;;;;;61.02;29.45;;;;;;;1.17;84.43;98713.13;1670255;86;21506;-74
2021/11/28 07:47:16;;;;;;;58.28;26.68;;;;;;;1.24;84.45;98721.21;1670173;86;21096;-74
2021/11/28 07:49:42;;;;;;;48.13;26.25;;;;;;;1.29;84.47;98726.36;1669997;86;21109;-74
2021/11/28 07:52:08;;;;;;;56.98;26.50;;;;;;;1.32;84.47;98728.68;1670058;86;20944;-73
2021/11/28 07:54:34;;;;;;;49.85;26.27;;;;;;;1.39;84.49;98740.22;1670163;86;20868;-74
2021/11/28 07:57:02;;;;;;;39.78;23.50;;;;;;;1.45;84.51;98743.55;1668991;86;21563;-74
2021/11/28 07:59:32;;;;;;;42.43;23.30;;;;;;;1.46;84.52;98743.89;1669957;86;21862;-73
2021/11/28 08:01:58;;;;;;;32.40;20.82;;;;;;;1.51;84.54;98753.42;1670137;84;27023;-73
2021/11/28 08:04:24;;;;;;;36.85;24.15;;;;;;;1.57;84.54;98746.75;1669993;86;20932;-73
2021/11/28 08:06:50;;;;;;;46.92;33.83;;;;;;;1.59;84.53;98745.27;1668275;86;21073;-73
2021/11/28 08:09:16;;;;;;;46.92;32.67;;;;;;;1.59;84.52;98747.41;1664671;86;20919;-73
2021/11/28 08:11:42;;;;;;;38.17;26.68;;;;;;;1.61;84.52;98740.70;1664917;86;21958;-73
2021/11/28 08:14:08;;;;;;;46.40;26.12;;;;;;;1.62;84.53;98749.73;1664683;86;21000;-74
2021/11/28 08:16:33;;;;;;;44.70;24.92;;;;;;;1.64;84.53;98750.91;1655246;85;20953;-73
2021/11/28 08:18:59;;;;;;;53.90;25.85;;;;;;;1.63;84.55;98748.76;1648169;87;20913;-73
2021/11/28 08:21:28;;;;;;;54.45;28.00;;;;;;;1.66;84.55;98745.81;1648457;87;20913;-73
2021/11/28 08:23:56;;;;;;;49.93;26.90;;;;;;;1.66;84.57;98754.19;1648164;86;21512;-73
2021/11/28 08:26:22;;;;;;;39.67;22.98;;;;;;;1.65;84.57;98752.08;1654176;86;21491;-73
2021/11/28 08:28:47;;;;;;;39.95;23.10;;;;;;;1.65;84.60;98751.24;1657044;86;20916;-74
2021/11/28 08:31:13;;;;;;;33.48;21.15;;;;;;;1.66;84.58;98754.19;1659896;86;20931;-73
2021/11/28 08:33:39;;;;;;;33.48;23.05;;;;;;;1.68;84.60;98758.81;1649944;86;21696;-73
2021/11/28 08:36:05;;;;;;;34.45;21.87;;;;;;;1.72;84.61;98762.30;1648193;87;21157;-73
2021/11/28 08:38:32;;;;;;;31.25;20.43;;;;;;;1.77;84.63;98765.27;1648365;87;20889;-73
2021/11/28 08:40:58;;;;;;;31.75;21.27;;;;;;;1.81;84.62;98761.84;1648288;87;21016;-73
2021/11/28 08:43:24;;;;;;;69.60;36.75;;;;;;;1.84;84.64;98759.73;1650142;86;21153;-74
2021/11/28 08:45:50;;;;;;;65.25;37.30;;;;;;;1.88;84.64;98757.63;1664814;86;20994;-73
2021/11/28 08:48:17;;;;;;;108.10;52.20;;;;;;;1.91;84.65;98757.31;1661009;86;21103;-73
2021/11/28 08:50:43;;;;;;;68.07;35.70;;;;;;;1.92;84.68;98745.83;1658498;86;21428;-74
2021/11/28 08:53:09;;;;;;;92.65;46.28;;;;;;;1.94;84.68;98745.99;1663342;86;21566;-73
2021/11/28 08:55:37;;;;;;;82.62;41.60;;;;;;;1.97;84.69;98746.19;1658731;86;21075;-73
2021/11/28 08:58:03;;;;;;;73.47;35.17;;;;;;;1.97;84.69;98736.48;1664626;86;21526;-73
2021/11/28 09:00:29;;;;;;;69.27;35.48;;;;;;;1.97;84.72;98733.05;1661216;86;21206;-73
2021/11/28 09:02:55;;;;;;;60.03;31.87;;;;;;;1.95;84.70;98727.11;1661041;86;21162;-73
2021/11/28 09:05:22;;;;;;;57.33;28.75;;;;;;;1.97;84.68;98735.68;1664633;86;21000;-73
2021/11/28 09:07:49;;;;;;;34.83;20.97;;;;;;;2.01;84.70;98725.16;1668664;84;21634;-73
2021/11/28 09:10:16;;;;;;;56.73;33.45;;;;;;;2.05;84.68;98734.38;1664270;84;21499;-73
2021/11/28 09:12:43;;;;;;;40.55;26.17;;;;;;;2.05;84.66;98723.04;1692843;84;21986;-73
2021/11/28 09:15:10;;;;;;;46.92;26.65;;;;;;;2.08;84.68;98723.55;1692710;84;21511;-73
2021/11/28 09:17:37;;;;;;;43.17;23.95;;;;;;;2.10;84.67;98718.98;1685024;84;21349;-73
2021/11/28 09:20:05;;;;;;;46.73;24.85;;;;;;;2.12;84.68;98724.89;1658507;84;21050;-73
2021/11/28 09:25:15;;;;;;;37.15;19.73;;;;;;;2.15;84.68;98735.09;1664716;86;21214;-73
2021/11/28 09:27:42;;;;;;;32.17;19.80;;;;;;;2.20;84.68;98746.45;1692351;84;20995;-72
2021/11/28 09:30:09;;;;;;;33.70;21.27;;;;;;;2.21;84.67;98746.31;1692657;84;21114;-73
2021/11/28 09:32:34;;;;;;;45.30;27.00;;;;;;;2.22;84.67;98742.67;1692709;84;21059;-73
2021/11/28 09:35:01;;;;;;;43.65;25.50;;;;;;;2.24;84.68;98732.84;1652351;86;21672;-72
2021/11/28 09:37:26;;;;;;;32.28;19.92;;;;;;;2.27;84.68;98732.52;1664902;86;21082;-73
2021/11/28 09:39:52;;;;;;;37.53;21.42;;;;;;;2.29;84.70;98727.91;1664518;86;20924;-73
2021/11/28 09:42:25;;;;;;;35.00;21.75;;;;;;;2.29;84.71;98726.59;1665016;86;20914;-73
2021/11/28 09:44:51;;;;;;;35.43;22.27;;;;;;;2.30;84.69;98730.89;1657027;86;21059;-73
2021/11/28 09:50:10;;;;;;;37.42;23.80;;;;;;;2.38;84.69;98723.03;1859475;75;22713;-73
2021/11/28 09:52:36;;;;;;;39.20;23.70;;;;;;;2.33;84.70;98722.67;1810941;77;21081;-72
2021/11/28 09:55:06;;;;;;;135.95;73.72;;;;;;;2.32;84.67;98730.74;1829945;77;21105;-73
2021/11/28 09:57:32;;;;;;;97.95;40.50;;;;;;;2.33;84.68;98728.42;1803270;78;21018;-73
2021/11/28 09:59:58;;;;;;;75.65;36.48;;;;;;;2.34;84.67;98723.50;1760793;80;20873;-73
2021/11/28 10:02:27;;;;;;;54.88;26.65;;;;;;;2.34;84.69;98717.76;1764612;80;21003;-73
2021/11/28 10:04:54;;;;;;;47.25;24.92;;;;;;;2.38;84.67;98723.52;1726773;81;21069;-73
2021/11/28 10:07:20;;;;;;;47.90;25.12;;;;;;;2.37;84.67;98713.48;1735094;80;21123;-73
2021/11/28 10:09:46;;;;;;;34.92;21.05;;;;;;;2.39;84.66;98710.20;1755690;81;21629;-72
2021/11/28 10:12:22;;;;;;;32.90;21.05;;;;;;;2.40;84.69;98707.91;1755358;81;20931;-73
2021/11/28 10:14:55;;;;;;;35.03;22.93;;;;;;;2.43;84.67;98711.52;1756207;81;21168;-72
2021/11/28 10:17:24;;;;;;;32.88;21.60;;;;;;;2.47;84.66;98714.66;1756449;81;21527;-73
2021/11/28 10:19:51;;;;;;;46.85;25.35;;;;;;;2.55;84.64;98723.08;1748914;81;21131;-73
2021/11/28 10:22:17;;;;;;;58.42;30.30;;;;;;;2.58;84.62;98729.33;1756092;81;21484;-73
2021/11/28 10:25:03;;;;;;;66.17;30.77;;;;;;;2.65;84.59;98715.86;1751780;81;20901;-73
2021/11/28 10:27:40;;;;;;;47.43;25.25;;;;;;;2.66;84.61;98714.39;1730866;81;21045;-73
2021/11/28 10:30:10;;;;;;;30.77;19.80;;;;;;;2.69;84.60;98711.44;1787637;80;21074;-73
2021/11/28 10:32:49;;;;;;;32.53;20.90;;;;;;;2.67;84.62;98706.02;1754354;80;21130;-73
2021/11/28 10:35:15;;;;;;;34.90;22.65;;;;;;;2.69;84.58;98700.08;1754824;81;21512;-73
2021/11/28 10:37:47;;;;;;;34.85;22.07;;;;;;;2.67;84.58;98698.95;1754993;81;20883;-72
2021/11/28 10:40:22;;;;;;;29.42;20.57;;;;;;;2.68;84.56;98695.80;1748535;81;21077;-72
2021/11/28 10:42:50;;;;;;;34.88;22.02;;;;;;;2.78;84.54;98693.87;1724195;81;21017;-72
2021/11/28 10:45:21;;;;;;;34.90;21.57;;;;;;;2.87;84.53;98691.56;1733680;81;21152;-72
2021/11/28 10:47:50;;;;;;;35.23;23.45;;;;;;;2.91;84.52;98686.31;1756484;81;21042;-72
2021/11/28 10:50:22;;;;;;;46.60;27.90;;;;;;;2.89;84.49;98691.72;1751037;81;20995;-72
2021/11/28 10:52:51;;;;;;;60.35;33.13;;;;;;;2.88;84.46;98690.59;1734602;82;21061;-72
2021/11/28 10:55:27;;;;;;;46.93;27.00;;;;;;;2.89;84.45;98692.20;1749987;81;21468;-73
2021/11/28 10:58:13;;;;;;;55.78;28.95;;;;;;;2.86;84.40;98685.95;1764965;80;21234;-74
2021/11/28 11:00:50;;;;;;;74.72;36.35;;;;;;;2.83;84.38;98681.85;1727250;83;21018;-74
2021/11/28 11:03:29;;;;;;;41.73;24.12;;;;;;;2.84;84.38;98673.47;1727965;83;21078;-75
2021/11/28 11:06:16;;;;;;;37.85;23.35;;;;;;;2.84;84.38;98680.05;1728393;83;21570;-74
2021/11/28 11:08:42;;;;;;;45.90;27.75;;;;;;;2.83;84.33;98680.53;1698775;84;21595;-74
2021/11/28 11:11:13;;;;;;;61.70;35.10;;;;;;;2.83;84.30;98681.02;1720743;83;21335;-74
2021/11/28 11:14:00;;;;;;;39.40;22.40;;;;;;;2.84;84.27;98680.88;1721048;83;21097;-74
2021/11/28 11:16:34;;;;;;;35.80;20.85;;;;;;;2.84;84.24;98670.83;1723825;83;21077;-75
2021/11/28 11:19:28;;;;;;;37.35;22.48;;;;;;;2.80;84.21;98661.61;1722331;83;20947;-74
2021/11/28 11:22:07;;;;;;;37.13;23.50;;;;;;;2.78;84.17;98674.13;1712126;82;21026;-74
2021/11/28 11:24:37;;;;;;;44.77;24.80;;;;;;;2.75;84.14;98673.11;1691632;83;21153;-74
2021/11/28 11:27:12;;;;;;;52.10;30.50;;;;;;;2.75;84.10;98665.22;1694179;83;20999;-75
2021/11/28 11:29:41;;;;;;;77.82;43.60;;;;;;;2.70;84.08;98664.89;1707826;83;21074;-74
2021/11/28 11:32:15;;;;;;;54.70;34.27;;;;;;;2.69;84.06;98664.07;1754270;81;21102;-74
2021/11/28 11:34:42;;;;;;;54.73;34.78;;;;;;;2.68;84.04;98658.95;1746780;80;20983;-74